sensor_id;sensor_type;location;lat;lon;timestamp;pressure;altitude;pressure_sealevel;temperature;humidity
51986;BME280;38002;53.296;6.600;2023-02-28T00:02:45;103495.59;;;4.67;82.48
51986;BME280;38002;53.296;6.600;2023-02-28T00:07:47;103485.78;;;4.66;83.01
51986;BME280;38002;53.296;6.600;2023-02-28T00:12:48;103487.59;;;4.65;83.06
51986;BME280;38002;53.296;6.600;2023-02-28T00:17:49;103478.69;;;4.63;82.74
51986;BME280;38002;53.296;6.600;2023-02-28T00:22:51;103484.25;;;4.58;82.99
51986;BME280;38002;53.296;6.600;2023-02-28T00:27:52;103482.56;;;4.56;83.10
51986;BME280;38002;53.296;6.600;2023-02-28T00:32:53;103487.06;;;4.55;83.14
51986;BME280;38002;53.296;6.600;2023-02-28T00:37:53;103484.41;;;4.54;82.92
51986;BME280;38002;53.296;6.600;2023-02-28T00:42:54;103481.81;;;4.52;83.05
51986;BME280;38002;53.296;6.600;2023-02-28T00:47:54;103471.06;;;4.51;83.27
51986;BME280;38002;53.296;6.600;2023-02-28T00:52:55;103461.50;;;4.44;83.87
51986;BME280;38002;53.296;6.600;2023-02-28T00:57:55;103457.25;;;4.37;83.53
51986;BME280;38002;53.296;6.600;2023-02-28T01:02:55;103466.25;;;4.36;83.99
51986;BME280;38002;53.296;6.600;2023-02-28T01:07:56;103460.88;;;4.36;83.50
51986;BME280;38002;53.296;6.600;2023-02-28T01:12:57;103456.38;;;4.36;83.66
51986;BME280;38002;53.296;6.600;2023-02-28T01:17:58;103468.91;;;4.37;84.04
51986;BME280;38002;53.296;6.600;2023-02-28T01:22:59;103460.88;;;4.36;83.56
51986;BME280;38002;53.296;6.600;2023-02-28T01:27:59;103462.63;;;4.37;83.88
51986;BME280;38002;53.296;6.600;2023-02-28T01:33:00;103462.47;;;4.41;83.66
51986;BME280;38002;53.296;6.600;2023-02-28T01:38:01;103455.25;;;4.42;84.17
51986;BME280;38002;53.296;6.600;2023-02-28T01:43:01;103448.81;;;4.46;83.90
51986;BME280;38002;53.296;6.600;2023-02-28T01:48:05;103446.84;;;4.51;84.04
51986;BME280;38002;53.296;6.600;2023-02-28T01:53:11;103439.50;;;4.54;84.04
51986;BME280;38002;53.296;6.600;2023-02-28T01:58:14;103430.34;;;4.58;84.45
51986;BME280;38002;53.296;6.600;2023-02-28T02:03:16;103420.41;;;4.61;84.32
51986;BME280;38002;53.296;6.600;2023-02-28T02:08:21;103427.44;;;4.65;84.44
51986;BME280;38002;53.296;6.600;2023-02-28T02:13:52;103421.97;;;4.66;84.94
51986;BME280;38002;53.296;6.600;2023-02-28T02:19:33;103425.53;;;4.67;85.07
51986;BME280;38002;53.296;6.600;2023-02-28T02:25:06;103430.00;;;4.68;84.59
51986;BME280;38002;53.296;6.600;2023-02-28T02:46:14;103414.53;;;4.73;85.08
51986;BME280;38002;53.296;6.600;2023-02-28T02:51:20;103413.50;;;4.75;85.36
51986;BME280;38002;53.296;6.600;2023-02-28T02:56:26;103413.47;;;4.77;85.25
51986;BME280;38002;53.296;6.600;2023-02-28T03:01:30;103404.44;;;4.78;85.09
51986;BME280;38002;53.296;6.600;2023-02-28T03:06:31;103408.91;;;4.79;85.22
51986;BME280;38002;53.296;6.600;2023-02-28T03:11:32;103413.31;;;4.80;85.64
51986;BME280;38002;53.296;6.600;2023-02-28T03:26:50;103418.72;;;4.80;85.72
51986;BME280;38002;53.296;6.600;2023-02-28T03:31:57;103421.34;;;4.81;85.25
51986;BME280;38002;53.296;6.600;2023-02-28T03:37:05;103424.06;;;4.81;85.25
51986;BME280;38002;53.296;6.600;2023-02-28T03:42:13;103420.53;;;4.79;85.59
51986;BME280;38002;53.296;6.600;2023-02-28T03:52:41;103423.41;;;4.75;86.01
51986;BME280;38002;53.296;6.600;2023-02-28T04:02:53;103422.41;;;4.55;86.38
51986;BME280;38002;53.296;6.600;2023-02-28T04:07:54;103428.91;;;4.50;86.61
51986;BME280;38002;53.296;6.600;2023-02-28T04:13:03;103424.31;;;4.30;87.53
51986;BME280;38002;53.296;6.600;2023-02-28T04:18:03;103420.63;;;4.09;88.76
51986;BME280;38002;53.296;6.600;2023-02-28T04:23:04;103430.00;;;3.98;88.25
51986;BME280;38002;53.296;6.600;2023-02-28T04:28:04;103438.41;;;3.89;88.68
51986;BME280;38002;53.296;6.600;2023-02-28T04:33:05;103429.03;;;3.76;87.84
51986;BME280;38002;53.296;6.600;2023-02-28T04:38:05;103438.81;;;3.78;87.85
51986;BME280;38002;53.296;6.600;2023-02-28T04:43:06;103444.22;;;3.78;87.80
51986;BME280;38002;53.296;6.600;2023-02-28T04:48:06;103430.03;;;3.73;88.27
51986;BME280;38002;53.296;6.600;2023-02-28T04:53:06;103444.25;;;3.77;88.01
51986;BME280;38002;53.296;6.600;2023-02-28T04:58:07;103438.00;;;3.76;89.12
51986;BME280;38002;53.296;6.600;2023-02-28T05:03:07;103431.97;;;3.70;87.61
51986;BME280;38002;53.296;6.600;2023-02-28T05:08:08;103440.91;;;3.70;87.64
51986;BME280;38002;53.296;6.600;2023-02-28T05:13:11;103447.34;;;3.66;87.41
51986;BME280;38002;53.296;6.600;2023-02-28T05:18:12;103438.28;;;3.69;88.01
51986;BME280;38002;53.296;6.600;2023-02-28T05:23:14;103440.19;;;3.65;87.39
51986;BME280;38002;53.296;6.600;2023-02-28T05:28:15;103443.97;;;3.59;88.33
51986;BME280;38002;53.296;6.600;2023-02-28T05:33:15;103446.81;;;3.55;88.13
51986;BME280;38002;53.296;6.600;2023-02-28T05:38:16;103454.31;;;3.45;89.04
51986;BME280;38002;53.296;6.600;2023-02-28T05:43:17;103457.25;;;3.39;88.71
51986;BME280;38002;53.296;6.600;2023-02-28T05:48:17;103462.66;;;3.38;87.86
51986;BME280;38002;53.296;6.600;2023-02-28T05:53:18;103460.81;;;3.40;87.56
51986;BME280;38002;53.296;6.600;2023-02-28T05:58:18;103457.22;;;3.41;88.20
51986;BME280;38002;53.296;6.600;2023-02-28T06:03:19;103456.69;;;3.30;88.17
51986;BME280;38002;53.296;6.600;2023-02-28T06:08:19;103460.34;;;3.27;87.96
51986;BME280;38002;53.296;6.600;2023-02-28T06:13:20;103456.78;;;3.27;88.03
51986;BME280;38002;53.296;6.600;2023-02-28T06:18:20;103466.66;;;3.26;88.14
51986;BME280;38002;53.296;6.600;2023-02-28T06:23:21;103474.56;;;3.31;87.31
51986;BME280;38002;53.296;6.600;2023-02-28T06:28:22;103473.56;;;3.33;88.23
51986;BME280;38002;53.296;6.600;2023-02-28T06:33:22;103485.28;;;3.32;87.88
51986;BME280;38002;53.296;6.600;2023-02-28T06:38:23;103481.88;;;3.27;87.76
51986;BME280;38002;53.296;6.600;2023-02-28T06:43:25;103493.66;;;3.23;88.18
51986;BME280;38002;53.296;6.600;2023-02-28T06:48:27;103503.38;;;3.27;88.34
51986;BME280;38002;53.296;6.600;2023-02-28T06:53:27;103506.25;;;3.21;88.65
51986;BME280;38002;53.296;6.600;2023-02-28T06:58:28;103517.13;;;3.18;88.90
51986;BME280;38002;53.296;6.600;2023-02-28T07:03:28;103523.75;;;3.06;90.35
51986;BME280;38002;53.296;6.600;2023-02-28T07:08:29;103522.34;;;2.95;89.44
51986;BME280;38002;53.296;6.600;2023-02-28T07:13:30;103520.78;;;2.88;89.78
51986;BME280;38002;53.296;6.600;2023-02-28T07:18:31;103531.56;;;2.86;88.72
51986;BME280;38002;53.296;6.600;2023-02-28T07:23:31;103537.97;;;2.82;89.31
51986;BME280;38002;53.296;6.600;2023-02-28T07:28:32;103533.59;;;2.78;89.42
51986;BME280;38002;53.296;6.600;2023-02-28T07:33:33;103546.25;;;2.74;88.58
51986;BME280;38002;53.296;6.600;2023-02-28T07:38:35;103541.81;;;2.73;89.33
51986;BME280;38002;53.296;6.600;2023-02-28T07:43:36;103553.44;;;2.74;89.23
51986;BME280;38002;53.296;6.600;2023-02-28T07:48:37;103564.06;;;2.77;88.13
51986;BME280;38002;53.296;6.600;2023-02-28T07:53:37;103550.75;;;2.74;89.48
51986;BME280;38002;53.296;6.600;2023-02-28T07:58:38;103547.06;;;2.77;88.53
51986;BME280;38002;53.296;6.600;2023-02-28T08:03:39;103545.91;;;2.85;87.84
51986;BME280;38002;53.296;6.600;2023-02-28T08:08:40;103549.31;;;2.92;87.70
51986;BME280;38002;53.296;6.600;2023-02-28T08:13:40;103551.72;;;3.01;88.35
51986;BME280;38002;53.296;6.600;2023-02-28T08:18:42;103553.09;;;3.14;87.83
51986;BME280;38002;53.296;6.600;2023-02-28T08:23:43;103561.91;;;3.19;87.79
51986;BME280;38002;53.296;6.600;2023-02-28T08:28:44;103553.75;;;3.20;87.80
51986;BME280;38002;53.296;6.600;2023-02-28T08:33:45;103551.00;;;3.24;87.53
51986;BME280;38002;53.296;6.600;2023-02-28T08:38:46;103552.28;;;3.38;87.69
51986;BME280;38002;53.296;6.600;2023-02-28T08:43:46;103556.19;;;3.56;87.75
51986;BME280;38002;53.296;6.600;2023-02-28T08:48:47;103554.88;;;3.67;87.61
51986;BME280;38002;53.296;6.600;2023-02-28T08:53:47;103569.31;;;3.67;87.43
51986;BME280;38002;53.296;6.600;2023-02-28T08:58:50;103563.91;;;3.67;87.70
51986;BME280;38002;53.296;6.600;2023-02-28T09:03:51;103574.34;;;3.76;87.54
51986;BME280;38002;53.296;6.600;2023-02-28T09:08:52;103579.53;;;3.82;88.11
51986;BME280;38002;53.296;6.600;2023-02-28T09:13:53;103571.19;;;3.89;87.36
51986;BME280;38002;53.296;6.600;2023-02-28T09:18:55;103564.38;;;4.05;87.81
51986;BME280;38002;53.296;6.600;2023-02-28T09:23:55;103572.97;;;4.15;87.03
51986;BME280;38002;53.296;6.600;2023-02-28T09:28:56;103561.16;;;4.19;86.37
51986;BME280;38002;53.296;6.600;2023-02-28T09:33:59;103567.13;;;4.27;86.58
51986;BME280;38002;53.296;6.600;2023-02-28T09:38:59;103555.69;;;4.45;86.54
51986;BME280;38002;53.296;6.600;2023-02-28T09:44:02;103558.44;;;4.69;86.35
51986;BME280;38002;53.296;6.600;2023-02-28T09:49:07;103554.69;;;4.96;85.27
51986;BME280;38002;53.296;6.600;2023-02-28T09:54:15;103556.88;;;5.08;85.02
51986;BME280;38002;53.296;6.600;2023-02-28T10:09:41;103560.53;;;5.72;83.20
51986;BME280;38002;53.296;6.600;2023-02-28T10:14:45;103542.56;;;5.71;82.21
51986;BME280;38002;53.296;6.600;2023-02-28T10:24:57;103559.38;;;6.00;83.09
51986;BME280;38002;53.296;6.600;2023-02-28T10:30:01;103549.66;;;6.16;82.53
51986;BME280;38002;53.296;6.600;2023-02-28T10:35:24;103550.56;;;6.35;81.96
51986;BME280;38002;53.296;6.600;2023-02-28T10:40:33;103557.84;;;6.53;79.92
51986;BME280;38002;53.296;6.600;2023-02-28T10:45:35;103559.47;;;6.57;80.21
51986;BME280;38002;53.296;6.600;2023-02-28T11:01:03;103555.78;;;6.97;79.25
51986;BME280;38002;53.296;6.600;2023-02-28T11:06:06;103553.81;;;7.19;79.69
51986;BME280;38002;53.296;6.600;2023-02-28T11:11:08;103550.22;;;7.19;78.50
51986;BME280;38002;53.296;6.600;2023-02-28T11:16:11;103538.63;;;6.98;77.94
51986;BME280;38002;53.296;6.600;2023-02-28T11:21:22;103535.31;;;7.10;78.91
51986;BME280;38002;53.296;6.600;2023-02-28T11:26:56;103538.06;;;7.63;78.61
51986;BME280;38002;53.296;6.600;2023-02-28T11:32:18;103533.69;;;8.30;77.59
51986;BME280;38002;53.296;6.600;2023-02-28T11:37:20;103529.03;;;8.97;78.12
51986;BME280;38002;53.296;6.600;2023-02-28T11:47:47;103521.66;;;9.92;73.47
51986;BME280;38002;53.296;6.600;2023-02-28T12:30:43;103491.84;;;10.48;71.81
51986;BME280;38002;53.296;6.600;2023-02-28T12:35:54;103476.59;;;10.18;71.76
51986;BME280;38002;53.296;6.600;2023-02-28T12:41:19;103475.00;;;10.14;67.85
51986;BME280;38002;53.296;6.600;2023-02-28T12:46:29;103474.56;;;10.06;72.74
51986;BME280;38002;53.296;6.600;2023-02-28T12:51:34;103475.75;;;10.01;72.54
51986;BME280;38002;53.296;6.600;2023-02-28T12:57:01;103466.00;;;10.27;73.58
51986;BME280;38002;53.296;6.600;2023-02-28T13:12:55;103446.47;;;10.49;71.97
51986;BME280;38002;53.296;6.600;2023-02-28T13:17:58;103435.53;;;10.22;71.89
51986;BME280;38002;53.296;6.600;2023-02-28T13:22:59;103437.31;;;10.08;69.63
51986;BME280;38002;53.296;6.600;2023-02-28T13:28:02;103433.47;;;10.26;64.40
51986;BME280;38002;53.296;6.600;2023-02-28T13:38:32;103434.09;;;10.72;70.01
51986;BME280;38002;53.296;6.600;2023-02-28T14:05:27;103428.47;;;11.28;68.83
51986;BME280;38002;53.296;6.600;2023-02-28T14:10:22;103422.09;;;11.42;65.24
51986;BME280;38002;53.296;6.600;2023-02-28T14:15:49;103420.25;;;11.43;65.64
51986;BME280;38002;53.296;6.600;2023-02-28T14:21:20;103429.66;;;11.51;62.00
51986;BME280;38002;53.296;6.600;2023-02-28T14:26:29;103424.81;;;11.42;68.32
51986;BME280;38002;53.296;6.600;2023-02-28T14:31:37;103421.78;;;10.93;67.29
51986;BME280;38002;53.296;6.600;2023-02-28T14:36:43;103422.34;;;10.57;68.21
51986;BME280;38002;53.296;6.600;2023-02-28T14:41:45;103422.59;;;10.26;68.41
51986;BME280;38002;53.296;6.600;2023-02-28T14:46:49;103421.06;;;9.78;68.37
51986;BME280;38002;53.296;6.600;2023-02-28T14:57:03;103425.09;;;9.27;68.40
51986;BME280;38002;53.296;6.600;2023-02-28T15:07:17;103421.13;;;8.71;69.34
51986;BME280;38002;53.296;6.600;2023-02-28T15:12:18;103430.13;;;8.40;67.39
51986;BME280;38002;53.296;6.600;2023-02-28T15:17:23;103416.69;;;8.04;67.82
51986;BME280;38002;53.296;6.600;2023-02-28T15:22:34;103419.63;;;7.84;68.29
51986;BME280;38002;53.296;6.600;2023-02-28T15:27:44;103412.53;;;7.64;68.59
51986;BME280;38002;53.296;6.600;2023-02-28T15:33:02;103405.00;;;7.54;63.88
51986;BME280;38002;53.296;6.600;2023-02-28T15:43:18;103422.34;;;7.33;69.21
51986;BME280;38002;53.296;6.600;2023-02-28T15:48:45;103415.63;;;7.22;67.54
51986;BME280;38002;53.296;6.600;2023-02-28T15:53:54;103418.91;;;7.12;69.60
51986;BME280;38002;53.296;6.600;2023-02-28T15:58:58;103410.19;;;7.05;70.34
51986;BME280;38002;53.296;6.600;2023-02-28T16:04:03;103422.91;;;7.03;71.02
51986;BME280;38002;53.296;6.600;2023-02-28T16:09:06;103414.97;;;7.00;70.57
51986;BME280;38002;53.296;6.600;2023-02-28T16:14:13;103422.59;;;6.92;70.84
51986;BME280;38002;53.296;6.600;2023-02-28T16:19:14;103419.38;;;6.84;71.53
51986;BME280;38002;53.296;6.600;2023-02-28T16:24:15;103426.13;;;6.75;70.63
51986;BME280;38002;53.296;6.600;2023-02-28T16:29:23;103435.56;;;6.67;71.20
51986;BME280;38002;53.296;6.600;2023-02-28T16:34:25;103427.00;;;6.57;70.75
51986;BME280;38002;53.296;6.600;2023-02-28T16:39:25;103431.03;;;6.49;71.56
51986;BME280;38002;53.296;6.600;2023-02-28T16:44:33;103428.84;;;6.38;71.05
51986;BME280;38002;53.296;6.600;2023-02-28T16:49:35;103432.84;;;6.29;71.42
51986;BME280;38002;53.296;6.600;2023-02-28T16:54:35;103444.09;;;6.20;72.06
51986;BME280;38002;53.296;6.600;2023-02-28T16:59:36;103452.66;;;6.10;71.62
51986;BME280;38002;53.296;6.600;2023-02-28T17:04:36;103444.31;;;5.96;72.11
51986;BME280;38002;53.296;6.600;2023-02-28T17:09:37;103461.91;;;5.84;72.23
51986;BME280;38002;53.296;6.600;2023-02-28T17:14:37;103467.78;;;5.73;72.98
51986;BME280;38002;53.296;6.600;2023-02-28T17:19:38;103466.50;;;5.62;73.42
51986;BME280;38002;53.296;6.600;2023-02-28T17:24:43;103471.44;;;5.52;73.65
51986;BME280;38002;53.296;6.600;2023-02-28T17:29:45;103486.38;;;5.39;74.12
51986;BME280;38002;53.296;6.600;2023-02-28T17:34:45;103491.47;;;5.25;74.08
51986;BME280;38002;53.296;6.600;2023-02-28T17:39:46;103493.88;;;5.09;74.41
51986;BME280;38002;53.296;6.600;2023-02-28T17:44:46;103494.47;;;4.95;75.21
51986;BME280;38002;53.296;6.600;2023-02-28T17:49:47;103502.03;;;4.86;75.38
51986;BME280;38002;53.296;6.600;2023-02-28T17:54:47;103490.88;;;4.73;75.50
51986;BME280;38002;53.296;6.600;2023-02-28T17:59:48;103496.63;;;4.64;75.53
51986;BME280;38002;53.296;6.600;2023-02-28T18:04:48;103491.63;;;4.53;75.43
51986;BME280;38002;53.296;6.600;2023-02-28T18:09:49;103495.63;;;4.43;75.93
51986;BME280;38002;53.296;6.600;2023-02-28T18:14:49;103499.59;;;4.33;75.88
51986;BME280;38002;53.296;6.600;2023-02-28T18:19:50;103496.34;;;4.24;76.05
51986;BME280;38002;53.296;6.600;2023-02-28T18:24:50;103492.19;;;4.15;76.42
51986;BME280;38002;53.296;6.600;2023-02-28T18:29:51;103495.28;;;4.04;76.21
51986;BME280;38002;53.296;6.600;2023-02-28T18:34:51;103496.59;;;3.93;76.76
51986;BME280;38002;53.296;6.600;2023-02-28T18:39:52;103498.78;;;3.82;77.13
51986;BME280;38002;53.296;6.600;2023-02-28T18:44:53;103500.88;;;3.74;77.04
51986;BME280;38002;53.296;6.600;2023-02-28T18:49:53;103502.13;;;3.63;76.93
51986;BME280;38002;53.296;6.600;2023-02-28T18:54:54;103509.63;;;3.54;77.21
51986;BME280;38002;53.296;6.600;2023-02-28T18:59:54;103500.94;;;3.46;77.23
51986;BME280;38002;53.296;6.600;2023-02-28T19:04:55;103503.94;;;3.37;77.53
51986;BME280;38002;53.296;6.600;2023-02-28T19:09:55;103509.63;;;3.28;77.73
51986;BME280;38002;53.296;6.600;2023-02-28T19:14:56;103507.28;;;3.17;77.86
51986;BME280;38002;53.296;6.600;2023-02-28T19:19:57;103505.78;;;3.08;78.42
51986;BME280;38002;53.296;6.600;2023-02-28T19:24:57;103500.66;;;3.01;78.71
51986;BME280;38002;53.296;6.600;2023-02-28T19:29:58;103501.81;;;2.92;78.58
51986;BME280;38002;53.296;6.600;2023-02-28T19:34:58;103499.38;;;2.85;78.58
51986;BME280;38002;53.296;6.600;2023-02-28T19:39:59;103504.97;;;2.77;78.47
51986;BME280;38002;53.296;6.600;2023-02-28T19:45:00;103508.75;;;2.71;79.05
51986;BME280;38002;53.296;6.600;2023-02-28T19:50:01;103515.22;;;2.64;78.54
51986;BME280;38002;53.296;6.600;2023-02-28T19:55:01;103512.75;;;2.57;79.28
51986;BME280;38002;53.296;6.600;2023-02-28T20:00:02;103514.72;;;2.50;78.99
51986;BME280;38002;53.296;6.600;2023-02-28T20:05:03;103508.69;;;2.44;79.15
51986;BME280;38002;53.296;6.600;2023-02-28T20:10:04;103526.69;;;2.40;78.95
51986;BME280;38002;53.296;6.600;2023-02-28T20:15:05;103520.59;;;2.34;79.09
51986;BME280;38002;53.296;6.600;2023-02-28T20:20:06;103518.06;;;2.29;79.38
51986;BME280;38002;53.296;6.600;2023-02-28T20:25:10;103512.03;;;2.21;79.33
51986;BME280;38002;53.296;6.600;2023-02-28T20:30:11;103519.38;;;2.14;80.27
51986;BME280;38002;53.296;6.600;2023-02-28T20:35:12;103513.22;;;2.11;79.97
51986;BME280;38002;53.296;6.600;2023-02-28T20:40:12;103520.41;;;2.09;80.41
51986;BME280;38002;53.296;6.600;2023-02-28T20:45:13;103520.66;;;2.01;79.54
51986;BME280;38002;53.296;6.600;2023-02-28T20:50:14;103527.03;;;1.96;79.83
51986;BME280;38002;53.296;6.600;2023-02-28T20:55:16;103528.16;;;1.89;82.00
51986;BME280;38002;53.296;6.600;2023-02-28T21:00:16;103524.59;;;1.87;80.12
51986;BME280;38002;53.296;6.600;2023-02-28T21:05:19;103528.38;;;1.79;80.64
51986;BME280;38002;53.296;6.600;2023-02-28T21:10:20;103523.22;;;1.72;80.90
51986;BME280;38002;53.296;6.600;2023-02-28T21:15:20;103527.91;;;1.64;80.81
51986;BME280;38002;53.296;6.600;2023-02-28T21:20:22;103527.97;;;1.61;80.60
51986;BME280;38002;53.296;6.600;2023-02-28T21:25:22;103532.53;;;1.57;80.63
51986;BME280;38002;53.296;6.600;2023-02-28T21:30:23;103538.03;;;1.51;81.18
51986;BME280;38002;53.296;6.600;2023-02-28T21:35:23;103529.28;;;1.45;81.53
51986;BME280;38002;53.296;6.600;2023-02-28T21:40:24;103535.66;;;1.41;81.31
51986;BME280;38002;53.296;6.600;2023-02-28T21:45:24;103536.66;;;1.35;81.65
51986;BME280;38002;53.296;6.600;2023-02-28T21:50:26;103530.63;;;1.27;81.13
51986;BME280;38002;53.296;6.600;2023-02-28T21:55:26;103534.28;;;1.24;80.84
51986;BME280;38002;53.296;6.600;2023-02-28T22:00:27;103539.66;;;1.23;81.43
51986;BME280;38002;53.296;6.600;2023-02-28T22:05:28;103531.72;;;1.18;81.28
51986;BME280;38002;53.296;6.600;2023-02-28T22:10:29;103540.84;;;1.10;81.37
51986;BME280;38002;53.296;6.600;2023-02-28T22:15:29;103540.09;;;1.05;82.14
51986;BME280;38002;53.296;6.600;2023-02-28T22:20:31;103539.25;;;1.03;81.64
51986;BME280;38002;53.296;6.600;2023-02-28T22:25:35;103541.16;;;0.98;81.73
51986;BME280;38002;53.296;6.600;2023-02-28T22:30:36;103541.28;;;0.91;81.43
51986;BME280;38002;53.296;6.600;2023-02-28T22:35:36;103553.94;;;0.85;81.69
51986;BME280;38002;53.296;6.600;2023-02-28T22:40:37;103555.81;;;0.81;81.71
51986;BME280;38002;53.296;6.600;2023-02-28T22:45:39;103548.00;;;0.71;82.08
51986;BME280;38002;53.296;6.600;2023-02-28T22:50:39;103553.44;;;0.66;81.88
51986;BME280;38002;53.296;6.600;2023-02-28T22:55:40;103554.44;;;0.61;82.61
51986;BME280;38002;53.296;6.600;2023-02-28T23:00:40;103553.69;;;0.56;82.01
51986;BME280;38002;53.296;6.600;2023-02-28T23:05:41;103552.03;;;0.49;82.04
51986;BME280;38002;53.296;6.600;2023-02-28T23:10:42;103544.97;;;0.46;82.30
51986;BME280;38002;53.296;6.600;2023-02-28T23:15:42;103551.28;;;0.42;82.36
51986;BME280;38002;53.296;6.600;2023-02-28T23:20:43;103548.72;;;0.37;82.09
51986;BME280;38002;53.296;6.600;2023-02-28T23:25:43;103551.50;;;0.31;81.87
51986;BME280;38002;53.296;6.600;2023-02-28T23:30:44;103549.84;;;0.26;82.42
51986;BME280;38002;53.296;6.600;2023-02-28T23:35:45;103557.00;;;0.25;82.50
51986;BME280;38002;53.296;6.600;2023-02-28T23:40:45;103555.28;;;0.21;82.24
51986;BME280;38002;53.296;6.600;2023-02-28T23:45:54;103557.25;;;0.12;82.78
51986;BME280;38002;53.296;6.600;2023-02-28T23:50:59;103563.59;;;0.06;82.76
51986;BME280;38002;53.296;6.600;2023-02-28T23:56:00;103551.16;;;0.04;82.63
